Portada
METAR-TAF:

METAR-TAF

Aeroports :

Singapur, Singapur

latitud: 01-25-08N, longitud: 103-51-57E, altitud: 11 m

Observació

L'informe es va fer fa 1 hora i 2 minuts, a les 08:00 UTC
Vent 7 kt del Sud, variant entre Sud-Est i Sud/Sud-Oest
Temperatura 30°C
Humitat 66%
Pressió 1005 hPa
Visibilitat 10 km o més
Escasses núvols a una alçada de 1700 ft, Cumulus congestus.
Núvols disperses a una alçada de 15000 ft
xàfecs en les proximitats

METAR: WSSL 300800Z 17007KT 140V210 9999 VCSH FEW017TCU SCT150 30/23 Q1005 RETS

Hora: 17:02 (09:02 UTC)

Pronòstic

L'informe es va fer fa 1 hora i 2 minuts, a les 08:00 UTC
Pronòstic vàlid del 30 a les 08 UTC al 01 a les 12 UTC
Vent 8 kt del Sud/Sud-Est
Visibilitat 10 km o més
Escasses núvols a una alçada de 1500 ft
Núvols disperses a una alçada de 2000 ft

TAF: WSSL 300800Z 3008/0112 15008KT 9999 FEW015 SCT020

Observacions i pronòstics meteorològics de més de 4000 aeroports (METAR i TAF).

Les estacions disponibles són els punts grocs i vermells al mapa.

Posi el ratolí al punt desitjat per veure el nom de l'estació.

Feu clic per veure les observacions i els pronòstics meteorològics.

Per canviar el mapa: feu clic els botons verds amb una creu de color negre per apropar; al botó verd amb un guió per allunyar la imatge; o en les fletxes verdes per a mapes adjacents.


METAR-TAF: